Time;durP1;ratioP1;P1;durP2;ratioP2;P2;SDS_P1;SDS_P2;PMS_P1;PMS_P2;Temp;Humidity;BMP_temperature;BMP_pressure;BME280_temperature;BME280_humidity;BME280_pressure;Samples;Min_cycle;Max_cycle;Signal;HPM_P1;HPM_P2
2021/01/21 00:01:45;;;;;;;0.30;0.28;;;;;;;;;;5032612;28;20363;-69
2021/01/21 00:04:10;;;;;;;0.80;0.30;;;;;;;;;;5033966;28;20024;-69
2021/01/21 00:06:35;;;;;;;0.55;0.40;;;;;;;;;;5034981;28;20030;-69
2021/01/21 00:09:01;;;;;;;0.20;0.20;;;;;;;;;;5035356;28;20099;-69
2021/01/21 00:11:26;;;;;;;0.20;0.20;;;;;;;;;;5035384;28;20045;-69
2021/01/21 00:13:52;;;;;;;1.65;0.45;;;;;;;;;;5026038;28;20082;-69
2021/01/21 00:16:17;;;;;;;0.75;0.40;;;;;;;;;;5032772;28;20660;-68
2021/01/21 00:18:42;;;;;;;1.38;0.70;;;;;;;;;;5046848;28;20027;-68
2021/01/21 00:21:08;;;;;;;0.80;0.50;;;;;;;;;;5031257;28;20041;-68
2021/01/21 00:23:33;;;;;;;0.80;0.50;;;;;;;;;;5038521;28;20390;-68
2021/01/21 00:25:58;;;;;;;0.90;0.70;;;;;;;;;;5031315;28;20026;-69
2021/01/21 00:28:24;;;;;;;1.83;0.60;;;;;;;;;;5037927;28;20037;-68
2021/01/21 00:30:49;;;;;;;1.65;1.00;;;;;;;;;;5036657;28;20036;-68
2021/01/21 00:33:14;;;;;;;1.25;0.70;;;;;;;;;;5044504;28;20028;-68
2021/01/21 00:35:40;;;;;;;1.60;0.68;;;;;;;;;;5030798;28;20037;-68
2021/01/21 00:38:05;;;;;;;1.20;0.80;;;;;;;;;;5044579;28;20729;-68
2021/01/21 00:40:30;;;;;;;1.27;0.90;;;;;;;;;;5033430;28;20021;-69
2021/01/21 00:42:56;;;;;;;2.17;0.93;;;;;;;;;;5042972;28;20462;-69
2021/01/21 00:45:21;;;;;;;1.30;0.70;;;;;;;;;;5034497;28;20049;-68
2021/01/21 00:47:46;;;;;;;2.67;1.10;;;;;;;;;;5044349;28;20024;-68
2021/01/21 00:50:12;;;;;;;1.95;1.00;;;;;;;;;;5039317;28;20099;-69
2021/01/21 00:52:37;;;;;;;5.03;1.35;;;;;;;;;;5040560;28;20037;-68
2021/01/21 00:55:03;;;;;;;3.13;1.45;;;;;;;;;;5040403;28;20017;-69
2021/01/21 00:57:28;;;;;;;4.50;1.52;;;;;;;;;;5040077;28;20037;-69
2021/01/21 00:59:53;;;;;;;3.33;1.75;;;;;;;;;;5044810;28;20033;-68
2021/01/21 01:02:18;;;;;;;3.88;1.50;;;;;;;;;;5034353;28;20033;-68
2021/01/21 01:04:44;;;;;;;5.07;1.60;;;;;;;;;;5036109;28;20545;-68
2021/01/21 01:07:09;;;;;;;4.85;2.13;;;;;;;;;;5038791;28;20044;-68
2021/01/21 01:09:34;;;;;;;8.35;3.08;;;;;;;;;;5033005;28;20043;-71
2021/01/21 01:12:00;;;;;;;4.43;2.00;;;;;;;;;;5029640;28;20040;-70
2021/01/21 01:14:25;;;;;;;4.47;2.17;;;;;;;;;;5046378;28;20033;-70
2021/01/21 01:16:50;;;;;;;4.22;1.73;;;;;;;;;;5030140;28;20025;-71
2021/01/21 01:19:15;;;;;;;5.28;1.70;;;;;;;;;;5032193;28;20029;-70
2021/01/21 01:21:42;;;;;;;6.25;2.20;;;;;;;;;;5035966;28;20064;-71
2021/01/21 01:24:08;;;;;;;4.93;2.00;;;;;;;;;;5034035;28;20018;-71
2021/01/21 01:26:36;;;;;;;6.25;2.63;;;;;;;;;;5033735;28;20385;-70
2021/01/21 01:29:05;;;;;;;4.80;2.17;;;;;;;;;;5039823;28;20037;-69
2021/01/21 01:31:30;;;;;;;12.82;5.10;;;;;;;;;;5036226;28;20026;-69
2021/01/21 01:33:55;;;;;;;9.88;3.30;;;;;;;;;;5038868;28;20033;-68
2021/01/21 01:36:21;;;;;;;5.53;2.58;;;;;;;;;;5033754;28;20045;-68
2021/01/21 01:38:46;;;;;;;4.88;1.83;;;;;;;;;;5033859;28;20022;-68
2021/01/21 01:41:11;;;;;;;7.07;2.20;;;;;;;;;;5033203;28;20025;-68
2021/01/21 01:43:37;;;;;;;9.32;2.80;;;;;;;;;;5033767;28;20109;-68
2021/01/21 01:46:04;;;;;;;16.77;6.80;;;;;;;;;;5033443;28;20095;-68
2021/01/21 01:48:29;;;;;;;13.90;4.13;;;;;;;;;;5032613;28;20151;-68
2021/01/21 01:50:54;;;;;;;23.38;8.48;;;;;;;;;;5033211;28;20072;-68
2021/01/21 01:53:20;;;;;;;23.98;6.70;;;;;;;;;;5033850;28;20028;-68
2021/01/21 01:55:45;;;;;;;10.77;3.72;;;;;;;;;;5065535;28;20036;-68
2021/01/21 01:58:13;;;;;;;18.63;6.03;;;;;;;;;;5032901;28;20517;-68
2021/01/21 02:00:38;;;;;;;23.42;6.32;;;;;;;;;;5033528;28;20036;-68
2021/01/21 02:03:03;;;;;;;18.13;5.40;;;;;;;;;;5032842;28;20029;-68
2021/01/21 02:05:29;;;;;;;72.45;21.92;;;;;;;;;;5033006;28;20041;-68
2021/01/21 02:07:54;;;;;;;36.63;11.77;;;;;;;;;;5033093;28;20017;-68
2021/01/21 02:10:20;;;;;;;13.15;5.30;;;;;;;;;;5033173;28;20084;-69
2021/01/21 02:13:04;;;;;;;9.15;4.10;;;;;;;;;;5032577;28;20116;-68
2021/01/21 02:15:38;;;;;;;8.95;5.68;;;;;;;;;;5033125;28;20033;-68
2021/01/21 02:18:24;;;;;;;7.03;2.42;;;;;;;;;;5032778;28;20116;-69
2021/01/21 02:21:04;;;;;;;5.78;2.83;;;;;;;;;;5032356;28;20469;-68
2021/01/21 02:23:32;;;;;;;2.50;1.38;;;;;;;;;;5032875;28;20041;-68
2021/01/21 02:26:05;;;;;;;7.85;2.50;;;;;;;;;;5032799;28;20370;-68
2021/01/21 02:28:49;;;;;;;3.65;2.20;;;;;;;;;;5032941;28;20039;-68
2021/01/21 02:31:26;;;;;;;5.03;2.60;;;;;;;;;;5032717;28;20474;-68
2021/01/21 02:34:03;;;;;;;6.20;1.75;;;;;;;;;;5032766;28;20033;-68
2021/01/21 02:36:42;;;;;;;3.97;1.20;;;;;;;;;;5032751;28;20037;-68
2021/01/21 02:39:12;;;;;;;3.22;1.58;;;;;;;;;;5032689;28;20033;-68
2021/01/21 02:41:38;;;;;;;2.42;1.17;;;;;;;;;;5032640;28;20026;-68
2021/01/21 02:44:03;;;;;;;2.72;1.13;;;;;;;;;;5032737;28;20034;-68
2021/01/21 02:46:28;;;;;;;8.52;1.25;;;;;;;;;;5032559;28;20454;-69
2021/01/21 02:48:55;;;;;;;5.35;1.50;;;;;;;;;;5032922;28;20092;-68
2021/01/21 02:51:41;;;;;;;3.15;1.58;;;;;;;;;;5032627;28;20075;-68
2021/01/21 02:54:06;;;;;;;3.35;1.88;;;;;;;;;;5028057;28;20049;-68
2021/01/21 02:56:32;;;;;;;2.35;1.30;;;;;;;;;;5032525;28;20044;-68
2021/01/21 02:59:00;;;;;;;1.75;1.02;;;;;;;;;;5032125;28;20458;-69
2021/01/21 03:01:26;;;;;;;3.92;1.15;;;;;;;;;;5035113;28;20029;-69
2021/01/21 03:03:52;;;;;;;3.58;1.30;;;;;;;;;;5036637;28;20383;-68
2021/01/21 03:06:19;;;;;;;2.25;1.10;;;;;;;;;;5036588;28;20026;-68
2021/01/21 03:08:45;;;;;;;5.95;1.13;;;;;;;;;;5036552;28;20044;-68
2021/01/21 03:11:11;;;;;;;2.25;1.30;;;;;;;;;;5036441;28;20045;-68
2021/01/21 03:13:40;;;;;;;5.75;1.20;;;;;;;;;;5036263;28;20052;-68
2021/01/21 03:16:05;;;;;;;2.70;1.17;;;;;;;;;;5036172;28;20043;-68
2021/01/21 03:18:30;;;;;;;2.72;1.30;;;;;;;;;;5036253;28;20389;-68
2021/01/21 03:20:56;;;;;;;3.42;1.25;;;;;;;;;;5036079;28;20018;-69
2021/01/21 03:23:21;;;;;;;7.68;1.00;;;;;;;;;;5036158;28;20040;-68
2021/01/21 03:25:46;;;;;;;6.10;1.02;;;;;;;;;;5035837;28;20037;-68
2021/01/21 03:28:12;;;;;;;2.03;1.05;;;;;;;;;;5036110;28;20053;-68
2021/01/21 03:30:37;;;;;;;4.70;1.13;;;;;;;;;;5036195;28;20084;-69
2021/01/21 03:33:02;;;;;;;2.05;1.02;;;;;;;;;;5035941;28;20037;-68
2021/01/21 03:35:28;;;;;;;4.03;1.45;;;;;;;;;;5036136;28;20096;-68
2021/01/21 03:37:53;;;;;;;3.13;1.30;;;;;;;;;;5067983;28;20078;-68
2021/01/21 03:40:18;;;;;;;5.72;0.95;;;;;;;;;;5035937;28;20038;-68
2021/01/21 03:42:44;;;;;;;4.18;1.10;;;;;;;;;;5035628;28;20014;-69
2021/01/21 03:45:09;;;;;;;2.70;1.05;;;;;;;;;;5035618;28;20095;-68
2021/01/21 03:47:34;;;;;;;3.22;1.10;;;;;;;;;;5035810;28;20037;-69
2021/01/21 03:50:00;;;;;;;2.50;0.80;;;;;;;;;;5035719;28;20033;-68
2021/01/21 03:52:25;;;;;;;4.80;1.08;;;;;;;;;;5035614;28;20493;-68
2021/01/21 03:54:50;;;;;;;6.13;0.68;;;;;;;;;;5035744;28;20120;-68
2021/01/21 03:57:15;;;;;;;2.67;0.82;;;;;;;;;;5035586;28;20481;-68
2021/01/21 03:59:41;;;;;;;2.38;0.73;;;;;;;;;;5035361;28;20033;-68
2021/01/21 04:02:06;;;;;;;2.42;0.80;;;;;;;;;;5035420;28;20045;-68
2021/01/21 04:04:31;;;;;;;2.72;0.80;;;;;;;;;;5035639;28;20113;-69
2021/01/21 04:06:56;;;;;;;5.68;0.95;;;;;;;;;;5035398;28;20420;-69
2021/01/21 04:09:22;;;;;;;3.25;0.90;;;;;;;;;;5035140;28;20049;-69
2021/01/21 04:11:47;;;;;;;2.03;1.00;;;;;;;;;;5035198;28;20017;-69
2021/01/21 04:14:12;;;;;;;4.07;0.70;;;;;;;;;;5035305;28;20029;-68
2021/01/21 04:16:37;;;;;;;4.90;0.82;;;;;;;;;;5035285;28;20099;-68
2021/01/21 04:19:03;;;;;;;1.73;0.80;;;;;;;;;;5035265;28;20109;-68
2021/01/21 04:21:28;;;;;;;3.58;1.30;;;;;;;;;;5035134;28;20367;-68
2021/01/21 04:23:59;;;;;;;2.08;0.85;;;;;;;;;;5035193;28;20087;-68
2021/01/21 04:26:24;;;;;;;8.75;1.27;;;;;;;;;;5035244;28;20116;-68
2021/01/21 04:28:49;;;;;;;1.60;1.00;;;;;;;;;;5034586;28;20116;-68
2021/01/21 04:31:14;;;;;;;5.18;1.45;;;;;;;;;;5034833;28;20043;-69
2021/01/21 04:33:40;;;;;;;5.97;1.73;;;;;;;;;;5035035;28;20017;-68
2021/01/21 04:36:06;;;;;;;4.10;0.95;;;;;;;;;;5034571;28;20037;-68
2021/01/21 04:38:31;;;;;;;5.50;1.30;;;;;;;;;;5034872;28;20040;-69
2021/01/21 04:40:57;;;;;;;3.58;1.25;;;;;;;;;;5034872;28;20093;-68
2021/01/21 04:43:22;;;;;;;6.13;1.60;;;;;;;;;;5034713;28;20068;-68
2021/01/21 04:45:47;;;;;;;5.43;1.15;;;;;;;;;;5034862;28;20030;-69
2021/01/21 04:48:13;;;;;;;4.53;1.23;;;;;;;;;;5034335;28;20045;-68
2021/01/21 04:50:39;;;;;;;3.38;1.08;;;;;;;;;;5034618;28;20592;-68
2021/01/21 04:53:05;;;;;;;6.57;1.20;;;;;;;;;;5034498;28;20038;-68
2021/01/21 04:55:36;;;;;;;2.13;0.77;;;;;;;;;;5034675;28;20025;-69
2021/01/21 04:58:19;;;;;;;2.33;0.70;;;;;;;;;;5034524;28;20029;-68
2021/01/21 05:00:44;;;;;;;3.72;1.13;;;;;;;;;;5034530;28;20112;-69
2021/01/21 05:03:13;;;;;;;5.35;1.15;;;;;;;;;;5034081;28;20130;-68
2021/01/21 05:05:39;;;;;;;6.78;1.20;;;;;;;;;;5034709;28;20041;-68
2021/01/21 05:08:05;;;;;;;5.68;1.55;;;;;;;;;;5034279;28;20378;-69
2021/01/21 05:10:30;;;;;;;5.25;1.60;;;;;;;;;;5034159;28;20080;-68
2021/01/21 05:12:56;;;;;;;6.70;1.38;;;;;;;;;;5033788;28;20034;-68
2021/01/21 05:15:21;;;;;;;6.28;1.20;;;;;;;;;;5034262;28;20029;-68
2021/01/21 05:17:46;;;;;;;9.07;1.55;;;;;;;;;;5034110;28;20661;-68
2021/01/21 05:20:11;;;;;;;8.10;1.58;;;;;;;;;;5033804;28;20041;-68
2021/01/21 05:22:40;;;;;;;3.90;1.50;;;;;;;;;;5033650;28;20021;-68
2021/01/21 05:25:06;;;;;;;6.68;1.70;;;;;;;;;;5033695;28;20091;-68
2021/01/21 05:27:31;;;;;;;6.25;1.70;;;;;;;;;;5032694;28;20033;-68
2021/01/21 05:29:59;;;;;;;7.90;2.00;;;;;;;;;;5033643;28;20034;-68
2021/01/21 05:32:25;;;;;;;7.13;2.13;;;;;;;;;;5033825;28;20113;-69
2021/01/21 05:34:50;;;;;;;16.75;2.00;;;;;;;;;;5033862;28;20546;-68
2021/01/21 05:37:16;;;;;;;10.02;1.70;;;;;;;;;;5033790;28;20025;-68
2021/01/21 05:39:45;;;;;;;8.00;2.85;;;;;;;;;;5033865;28;20466;-68
2021/01/21 05:42:10;;;;;;;6.88;1.38;;;;;;;;;;5033372;28;20033;-68
2021/01/21 05:44:36;;;;;;;7.78;1.73;;;;;;;;;;5033767;28;20024;-68
2021/01/21 05:47:06;;;;;;;8.02;1.77;;;;;;;;;;5033191;28;20122;-68
2021/01/21 05:49:31;;;;;;;5.35;1.80;;;;;;;;;;5033524;28;20044;-69
2021/01/21 05:51:57;;;;;;;11.02;2.38;;;;;;;;;;5033471;28;20440;-68
2021/01/21 05:54:23;;;;;;;7.43;2.80;;;;;;;;;;5033535;28;20037;-68
2021/01/21 05:56:49;;;;;;;11.05;2.00;;;;;;;;;;5033575;28;20064;-69
2021/01/21 05:59:15;;;;;;;12.50;2.10;;;;;;;;;;5032077;28;20048;-68
2021/01/21 06:01:40;;;;;;;13.35;2.63;;;;;;;;;;5033359;28;20455;-68
2021/01/21 06:04:06;;;;;;;7.57;1.85;;;;;;;;;;5033314;28;20480;-68
2021/01/21 06:06:36;;;;;;;8.48;1.92;;;;;;;;;;5032956;28;20024;-68
2021/01/21 06:09:02;;;;;;;7.10;1.83;;;;;;;;;;5033112;28;20037;-68
2021/01/21 06:11:28;;;;;;;12.32;1.83;;;;;;;;;;5032749;28;20049;-68
2021/01/21 06:13:54;;;;;;;11.32;2.47;;;;;;;;;;5033087;28;20029;-68
2021/01/21 06:16:21;;;;;;;9.88;1.58;;;;;;;;;;5033136;28;20030;-68
2021/01/21 06:18:46;;;;;;;6.07;1.80;;;;;;;;;;5033048;28;20060;-68
2021/01/21 06:21:14;;;;;;;6.43;1.55;;;;;;;;;;5032939;28;20059;-68
2021/01/21 06:23:42;;;;;;;12.45;1.65;;;;;;;;;;5033284;28;20021;-69
2021/01/21 06:26:08;;;;;;;6.93;1.00;;;;;;;;;;5032632;28;20564;-68
2021/01/21 06:28:34;;;;;;;8.63;1.10;;;;;;;;;;5032685;28;20047;-68
2021/01/21 06:30:59;;;;;;;10.13;1.42;;;;;;;;;;5032939;28;20112;-69
2021/01/21 06:33:33;;;;;;;5.70;1.73;;;;;;;;;;5032748;28;20131;-68
2021/01/21 06:36:07;;;;;;;6.38;1.65;;;;;;;;;;5032813;28;20378;-68
2021/01/21 06:38:40;;;;;;;14.37;2.17;;;;;;;;;;5032704;28;20029;-68
2021/01/21 06:41:07;;;;;;;10.65;0.93;;;;;;;;;;5032693;28;20029;-68
2021/01/21 06:43:36;;;;;;;9.77;1.83;;;;;;;;;;5032590;28;20044;-68
2021/01/21 06:46:01;;;;;;;8.93;0.98;;;;;;;;;;5032705;28;20386;-68
2021/01/21 06:48:27;;;;;;;11.23;1.00;;;;;;;;;;5032489;28;20013;-68
2021/01/21 06:50:53;;;;;;;7.00;0.82;;;;;;;;;;5032698;28;20029;-68
2021/01/21 06:53:18;;;;;;;3.22;0.68;;;;;;;;;;5032293;28;20041;-68
2021/01/21 06:55:47;;;;;;;1.85;0.60;;;;;;;;;;5032651;28;20128;-68
2021/01/21 06:58:12;;;;;;;4.63;0.80;;;;;;;;;;5032464;28;20065;-68
2021/01/21 07:00:39;;;;;;;1.70;0.57;;;;;;;;;;5032544;28;20060;-68
2021/01/21 07:03:05;;;;;;;6.63;1.80;;;;;;;;;;5032497;28;20014;-68
2021/01/21 07:05:30;;;;;;;2.90;0.90;;;;;;;;;;5032555;28;20022;-68
2021/01/21 07:07:56;;;;;;;3.45;0.85;;;;;;;;;;5032432;28;20467;-68
2021/01/21 07:10:32;;;;;;;1.38;0.68;;;;;;;;;;5032161;28;20405;-68
2021/01/21 07:12:59;;;;;;;2.17;0.52;;;;;;;;;;5032090;28;20525;-69
2021/01/21 07:15:50;;;;;;;4.35;0.63;;;;;;;;;;5024702;28;20038;-70
2021/01/21 07:18:16;;;;;;;11.88;4.10;;;;;;;;;;5026605;28;20052;-70
2021/01/21 07:20:59;;;;;;;19.63;4.75;;;;;;;;;;5030104;28;20037;-69
2021/01/21 07:23:34;;;;;;;2.38;0.70;;;;;;;;;;5031106;28;20033;-70
2021/01/21 07:26:17;;;;;;;4.22;1.38;;;;;;;;;;5030925;28;20088;-70
2021/01/21 07:28:50;;;;;;;9.85;3.15;;;;;;;;;;5031149;28;20025;-70
2021/01/21 07:31:15;;;;;;;3.30;0.90;;;;;;;;;;5031282;28;20065;-70
2021/01/21 07:33:40;;;;;;;15.27;3.30;;;;;;;;;;5031390;28;20524;-70
2021/01/21 07:36:26;;;;;;;14.10;4.57;;;;;;;;;;5031374;28;20040;-70
2021/01/21 07:38:51;;;;;;;14.43;5.33;;;;;;;;;;5031336;28;20052;-70
2021/01/21 07:41:35;;;;;;;4.28;1.38;;;;;;;;;;5032087;28;20259;-70
2021/01/21 07:44:00;;;;;;;5.85;2.42;;;;;;;;;;5032012;28;20052;-68
2021/01/21 07:46:26;;;;;;;6.65;2.03;;;;;;;;;;5033110;28;20433;-68
2021/01/21 07:49:10;;;;;;;4.10;1.02;;;;;;;;;;5035413;28;20083;-68
2021/01/21 07:51:35;;;;;;;7.57;1.23;;;;;;;;;;5035473;28;20421;-70
2021/01/21 07:54:04;;;;;;;5.45;1.98;;;;;;;;;;5036000;28;20525;-70
2021/01/21 07:56:30;;;;;;;11.20;2.45;;;;;;;;;;5035741;28;20026;-70
2021/01/21 07:58:59;;;;;;;10.80;1.70;;;;;;;;;;5035567;28;20033;-70
2021/01/21 08:01:24;;;;;;;10.75;2.83;;;;;;;;;;5035662;28;20041;-70
2021/01/21 08:03:49;;;;;;;19.88;4.13;;;;;;;;;;5035334;28;20018;-68
2021/01/21 08:06:19;;;;;;;13.77;2.83;;;;;;;;;;5035493;28;20037;-67
2021/01/21 08:08:48;;;;;;;22.02;5.38;;;;;;;;;;5035428;28;20108;-68
2021/01/21 08:11:18;;;;;;;26.38;4.88;;;;;;;;;;5034987;28;20049;-68
2021/01/21 08:13:43;;;;;;;14.75;3.95;;;;;;;;;;5035390;28;20064;-68
2021/01/21 08:16:16;;;;;;;33.70;7.93;;;;;;;;;;5035345;28;20065;-70
2021/01/21 08:18:41;;;;;;;21.35;6.90;;;;;;;;;;5035360;28;20021;-70
2021/01/21 08:21:20;;;;;;;94.35;35.92;;;;;;;;;;5035229;28;20386;-70
2021/01/21 08:23:55;;;;;;;50.08;19.77;;;;;;;;;;5034859;28;20041;-70
2021/01/21 08:26:20;;;;;;;13.52;5.85;;;;;;;;;;5035205;28;20029;-68
2021/01/21 08:28:45;;;;;;;44.20;11.93;;;;;;;;;;5035017;28;20037;-68
2021/01/21 08:31:11;;;;;;;26.73;7.38;;;;;;;;;;5035084;28;20017;-70
2021/01/21 08:33:38;;;;;;;15.20;5.38;;;;;;;;;;5034915;28;20080;-70
2021/01/21 08:36:04;;;;;;;36.55;9.68;;;;;;;;;;5035038;28;20120;-70
2021/01/21 08:38:32;;;;;;;12.60;2.92;;;;;;;;;;5034855;28;20079;-70
2021/01/21 08:40:58;;;;;;;15.57;2.40;;;;;;;;;;5034941;28;20026;-70
2021/01/21 08:43:24;;;;;;;8.05;1.50;;;;;;;;;;5034781;28;20041;-70
2021/01/21 08:45:49;;;;;;;9.30;1.40;;;;;;;;;;5034558;28;20018;-68
2021/01/21 08:48:27;;;;;;;6.13;1.40;;;;;;;;;;5034438;28;20112;-68
2021/01/21 08:50:53;;;;;;;11.77;2.03;;;;;;;;;;5034773;28;20041;-68
2021/01/21 08:53:22;;;;;;;8.32;1.75;;;;;;;;;;5034272;28;20393;-68
2021/01/21 08:55:49;;;;;;;11.23;1.67;;;;;;;;;;5034675;28;20071;-68
2021/01/21 08:58:16;;;;;;;13.32;3.10;;;;;;;;;;5036458;28;20412;-68
2021/01/21 09:01:00;;;;;;;7.45;2.08;;;;;;;;;;5034695;28;20529;-67
2021/01/21 09:03:38;;;;;;;11.73;2.60;;;;;;;;;;5044038;28;20040;-70
2021/01/21 09:06:06;;;;;;;10.20;2.10;;;;;;;;;;5028645;28;20037;-70
2021/01/21 09:08:33;;;;;;;11.30;2.15;;;;;;;;;;5030594;28;20120;-70
2021/01/21 09:10:59;;;;;;;8.25;2.35;;;;;;;;;;5029104;28;20163;-69
2021/01/21 09:13:24;;;;;;;12.38;2.70;;;;;;;;;;5030821;28;20125;-69
2021/01/21 09:15:55;;;;;;;7.00;1.83;;;;;;;;;;5030395;28;20449;-70
2021/01/21 09:18:21;;;;;;;11.50;2.08;;;;;;;;;;5030648;28;20526;-70
2021/01/21 09:20:47;;;;;;;10.90;1.77;;;;;;;;;;5029998;28;20041;-70
2021/01/21 09:23:13;;;;;;;20.27;4.05;;;;;;;;;;5027530;28;20064;-69
2021/01/21 09:25:38;;;;;;;34.47;10.38;;;;;;;;;;5030214;28;20009;-70
2021/01/21 09:28:03;;;;;;;16.50;3.60;;;;;;;;;;5030036;28;20108;-70
2021/01/21 09:30:29;;;;;;;20.52;5.68;;;;;;;;;;5029873;28;20077;-70
2021/01/21 09:32:54;;;;;;;34.95;12.05;;;;;;;;;;5029271;28;20028;-70
2021/01/21 09:35:20;;;;;;;53.47;22.27;;;;;;;;;;5029576;28;20064;-69
2021/01/21 09:37:50;;;;;;;17.38;6.68;;;;;;;;;;5029402;28;20120;-70
2021/01/21 09:40:16;;;;;;;17.00;3.67;;;;;;;;;;5029720;28;20021;-70
2021/01/21 09:42:42;;;;;;;19.75;5.20;;;;;;;;;;5029419;28;20754;-70
2021/01/21 09:45:08;;;;;;;45.08;24.73;;;;;;;;;;5029699;28;20045;-70
2021/01/21 09:47:33;;;;;;;42.47;23.02;;;;;;;;;;5030588;28;20436;-70
2021/01/21 09:49:59;;;;;;;19.00;7.00;;;;;;;;;;5030619;28;20053;-70
2021/01/21 09:52:24;;;;;;;19.17;4.45;;;;;;;;;;5026053;28;20029;-71
2021/01/21 09:54:49;;;;;;;15.50;2.25;;;;;;;;;;5028762;28;20013;-71
2021/01/21 09:57:15;;;;;;;14.38;2.72;;;;;;;;;;5028318;28;20029;-70
2021/01/21 09:59:40;;;;;;;19.13;2.30;;;;;;;;;;5027687;28;20041;-70
2021/01/21 10:02:05;;;;;;;14.73;4.88;;;;;;;;;;5016632;28;20068;-70
2021/01/21 10:04:36;;;;;;;15.27;5.72;;;;;;;;;;5022064;28;20037;-70
2021/01/21 10:07:02;;;;;;;17.40;3.42;;;;;;;;;;5021824;28;20103;-70
2021/01/21 10:09:27;;;;;;;14.18;2.70;;;;;;;;;;5023844;28;20581;-70
2021/01/21 10:11:52;;;;;;;19.02;2.80;;;;;;;;;;5026579;28;20025;-70
2021/01/21 10:14:18;;;;;;;12.70;2.53;;;;;;;;;;5026091;28;20045;-70
2021/01/21 10:16:43;;;;;;;12.82;1.85;;;;;;;;;;5023711;28;20028;-70
2021/01/21 10:19:09;;;;;;;12.30;3.10;;;;;;;;;;5023933;28;20068;-70
2021/01/21 10:21:35;;;;;;;23.00;3.65;;;;;;;;;;5028173;28;20041;-70
2021/01/21 10:24:00;;;;;;;6.28;1.70;;;;;;;;;;5026616;28;20383;-70
2021/01/21 10:26:25;;;;;;;10.88;2.00;;;;;;;;;;5030519;28;20029;-70
2021/01/21 10:28:51;;;;;;;17.67;2.70;;;;;;;;;;5031859;28;20033;-70
2021/01/21 10:31:16;;;;;;;18.70;2.30;;;;;;;;;;5031239;28;20025;-70
2021/01/21 10:33:43;;;;;;;13.32;3.13;;;;;;;;;;5027933;28;20437;-70
2021/01/21 10:36:08;;;;;;;19.38;2.83;;;;;;;;;;5035276;28;20143;-70
2021/01/21 10:38:34;;;;;;;10.82;1.95;;;;;;;;;;5023765;28;20033;-70
2021/01/21 10:40:59;;;;;;;20.48;5.45;;;;;;;;;;5023497;28;20029;-71
2021/01/21 10:43:25;;;;;;;15.55;2.00;;;;;;;;;;5032066;28;20111;-70
2021/01/21 10:45:50;;;;;;;12.15;1.77;;;;;;;;;;5034921;28;20461;-70
2021/01/21 10:48:15;;;;;;;10.65;1.55;;;;;;;;;;5027863;28;20079;-71
2021/01/21 10:50:42;;;;;;;10.68;1.58;;;;;;;;;;5022767;28;20087;-70
2021/01/21 10:53:07;;;;;;;11.05;1.52;;;;;;;;;;5024612;28;20021;-71
2021/01/21 10:55:32;;;;;;;7.35;1.33;;;;;;;;;;5027344;28;20029;-71
2021/01/21 10:57:58;;;;;;;12.18;2.17;;;;;;;;;;5028094;28;20030;-71
2021/01/21 11:00:23;;;;;;;4.15;1.60;;;;;;;;;;5028214;28;20013;-71
2021/01/21 11:02:48;;;;;;;11.05;2.47;;;;;;;;;;5028150;28;20037;-70
2021/01/21 11:05:14;;;;;;;14.05;1.88;;;;;;;;;;5028960;28;20033;-71
2021/01/21 11:07:40;;;;;;;14.18;1.58;;;;;;;;;;5027769;28;20032;-70
2021/01/21 11:10:06;;;;;;;14.48;1.73;;;;;;;;;;5028619;28;20053;-70
2021/01/21 11:12:31;;;;;;;4.45;1.45;;;;;;;;;;5027547;28;20533;-71
2021/01/21 11:14:56;;;;;;;12.55;3.22;;;;;;;;;;5028302;28;20053;-70
2021/01/21 11:17:22;;;;;;;7.30;2.25;;;;;;;;;;5028902;28;20033;-71
2021/01/21 11:19:49;;;;;;;4.28;1.00;;;;;;;;;;5027641;28;20044;-71
2021/01/21 11:22:14;;;;;;;9.93;1.67;;;;;;;;;;5031805;28;20045;-71
2021/01/21 11:24:39;;;;;;;11.18;3.47;;;;;;;;;;5036365;28;20048;-70
2021/01/21 11:27:05;;;;;;;10.75;1.73;;;;;;;;;;5034835;28;20029;-71
2021/01/21 11:29:30;;;;;;;3.88;0.90;;;;;;;;;;5027406;28;20397;-70
2021/01/21 11:31:55;;;;;;;10.48;2.35;;;;;;;;;;5062503;28;20493;-71
2021/01/21 11:34:21;;;;;;;16.40;1.23;;;;;;;;;;5042354;28;20466;-71
2021/01/21 11:36:47;;;;;;;9.85;1.98;;;;;;;;;;5029922;28;20033;-71
2021/01/21 11:39:13;;;;;;;9.50;1.42;;;;;;;;;;5032900;28;20024;-71
2021/01/21 11:41:38;;;;;;;9.68;1.55;;;;;;;;;;5035465;28;20051;-70
2021/01/21 11:44:04;;;;;;;10.20;1.50;;;;;;;;;;5031822;28;20030;-71
2021/01/21 11:46:29;;;;;;;8.35;1.92;;;;;;;;;;5031927;28;20466;-71
2021/01/21 11:48:54;;;;;;;9.15;1.20;;;;;;;;;;5031958;28;20091;-70
2021/01/21 11:51:20;;;;;;;17.25;1.80;;;;;;;;;;5031531;28;20022;-71
2021/01/21 11:53:45;;;;;;;4.78;1.30;;;;;;;;;;5031597;28;20057;-70
2021/01/21 11:56:10;;;;;;;5.75;1.33;;;;;;;;;;5031097;28;20108;-71
2021/01/21 11:58:35;;;;;;;9.73;1.85;;;;;;;;;;5031569;28;20018;-70
2021/01/21 12:01:01;;;;;;;6.55;1.30;;;;;;;;;;5031322;28;20028;-71
2021/01/21 12:03:26;;;;;;;9.30;1.98;;;;;;;;;;5028783;28;20421;-71
2021/01/21 12:05:51;;;;;;;18.67;2.05;;;;;;;;;;5029855;28;20092;-71
2021/01/21 12:08:17;;;;;;;6.50;1.77;;;;;;;;;;5025353;28;20664;-71
2021/01/21 12:10:42;;;;;;;9.18;1.13;;;;;;;;;;5021330;28;20053;-70
2021/01/21 12:13:07;;;;;;;4.75;1.00;;;;;;;;;;5027883;28;20028;-71
2021/01/21 12:15:32;;;;;;;11.60;3.58;;;;;;;;;;5032573;28;20043;-71
2021/01/21 12:17:58;;;;;;;7.45;1.20;;;;;;;;;;5023555;28;20033;-70
2021/01/21 12:20:23;;;;;;;12.93;2.45;;;;;;;;;;5027327;28;20029;-70
2021/01/21 12:22:49;;;;;;;7.40;1.25;;;;;;;;;;5033423;28;20037;-70
2021/01/21 12:25:14;;;;;;;8.80;1.65;;;;;;;;;;5027447;28;20041;-70
2021/01/21 12:27:39;;;;;;;8.68;1.40;;;;;;;;;;5031732;28;20062;-70
2021/01/21 12:30:05;;;;;;;10.48;1.50;;;;;;;;;;5035272;28;20401;-71
2021/01/21 12:32:30;;;;;;;3.70;1.30;;;;;;;;;;5024676;28;20094;-71
2021/01/21 12:34:56;;;;;;;10.85;1.30;;;;;;;;;;5027408;28;20108;-71
2021/01/21 12:37:21;;;;;;;6.78;1.33;;;;;;;;;;5028557;28;20508;-70
2021/01/21 12:39:46;;;;;;;10.32;1.55;;;;;;;;;;5031168;28;20038;-70
2021/01/21 12:42:12;;;;;;;10.10;2.65;;;;;;;;;;5033784;28;20151;-70
2021/01/21 12:44:38;;;;;;;5.45;1.40;;;;;;;;;;5026912;28;20108;-70
2021/01/21 12:47:03;;;;;;;9.40;1.20;;;;;;;;;;5033803;28;20191;-71
2021/01/21 12:49:28;;;;;;;13.32;2.45;;;;;;;;;;5033643;28;20033;-70
2021/01/21 12:51:54;;;;;;;7.15;0.95;;;;;;;;;;5033444;28;20040;-71
2021/01/21 12:54:19;;;;;;;9.07;1.30;;;;;;;;;;5025444;28;20424;-69
2021/01/21 12:56:44;;;;;;;5.53;1.25;;;;;;;;;;5023711;28;20401;-71
2021/01/21 12:59:10;;;;;;;7.28;1.40;;;;;;;;;;5026781;28;20033;-71
2021/01/21 13:01:37;;;;;;;11.93;1.70;;;;;;;;;;5026638;28;20037;-71
2021/01/21 13:04:02;;;;;;;12.73;2.90;;;;;;;;;;5026275;28;20014;-70
2021/01/21 13:06:27;;;;;;;8.50;2.22;;;;;;;;;;5026401;28;20091;-71
2021/01/21 13:08:53;;;;;;;8.15;1.88;;;;;;;;;;5025644;28;20401;-69
2021/01/21 13:11:18;;;;;;;14.43;4.15;;;;;;;;;;5035553;28;20548;-71
2021/01/21 13:13:44;;;;;;;14.02;2.63;;;;;;;;;;5034526;28;20532;-70
2021/01/21 13:16:09;;;;;;;7.60;1.42;;;;;;;;;;5029108;28;20048;-69
2021/01/21 13:18:35;;;;;;;13.27;3.28;;;;;;;;;;5023911;28;20017;-71
2021/01/21 13:21:00;;;;;;;11.35;3.05;;;;;;;;;;5025816;28;20461;-70
2021/01/21 13:23:25;;;;;;;9.73;2.40;;;;;;;;;;5027949;28;20041;-70
2021/01/21 13:25:51;;;;;;;14.13;2.78;;;;;;;;;;5028041;28;20048;-70
2021/01/21 13:28:16;;;;;;;16.85;4.15;;;;;;;;;;5026387;28;20099;-70
2021/01/21 13:30:41;;;;;;;11.77;3.60;;;;;;;;;;5023470;28;20041;-70
2021/01/21 13:33:07;;;;;;;10.80;1.98;;;;;;;;;;5027114;28;20025;-71
2021/01/21 13:35:32;;;;;;;7.13;1.90;;;;;;;;;;5026331;28;20043;-71
2021/01/21 13:37:57;;;;;;;10.35;2.00;;;;;;;;;;5027760;28;20133;-71
2021/01/21 13:40:23;;;;;;;10.32;1.52;;;;;;;;;;5026746;28;20026;-71
2021/01/21 13:42:48;;;;;;;12.98;3.10;;;;;;;;;;5027321;28;20029;-71
2021/01/21 13:45:13;;;;;;;31.85;9.80;;;;;;;;;;5023366;28;20064;-70
2021/01/21 13:47:39;;;;;;;13.27;4.72;;;;;;;;;;5025735;28;20108;-71
2021/01/21 13:50:04;;;;;;;9.50;2.30;;;;;;;;;;5027035;28;20072;-70
2021/01/21 13:52:30;;;;;;;8.25;2.15;;;;;;;;;;5025366;28;20041;-71
2021/01/21 13:54:55;;;;;;;5.88;1.50;;;;;;;;;;5025717;28;20079;-71
2021/01/21 13:57:20;;;;;;;7.35;2.28;;;;;;;;;;5027876;28;20029;-71
2021/01/21 13:59:45;;;;;;;8.15;2.15;;;;;;;;;;5025183;28;20036;-71
2021/01/21 14:02:11;;;;;;;8.77;1.50;;;;;;;;;;5025119;28;20025;-71
2021/01/21 14:04:36;;;;;;;12.48;1.73;;;;;;;;;;5028494;28;20038;-70
2021/01/21 14:07:01;;;;;;;7.93;2.00;;;;;;;;;;5026273;28;20048;-71
2021/01/21 14:09:27;;;;;;;13.13;2.38;;;;;;;;;;5027729;28;20045;-70
2021/01/21 14:11:52;;;;;;;12.93;1.27;;;;;;;;;;5027789;28;20029;-70
2021/01/21 14:14:18;;;;;;;13.77;2.60;;;;;;;;;;5025445;28;20040;-71
2021/01/21 14:16:43;;;;;;;18.77;4.30;;;;;;;;;;5028456;28;20025;-70
2021/01/21 14:19:09;;;;;;;11.25;2.63;;;;;;;;;;5025797;28;20037;-71
2021/01/21 14:21:34;;;;;;;13.45;2.47;;;;;;;;;;5025183;28;20033;-71
2021/01/21 14:23:59;;;;;;;12.93;2.65;;;;;;;;;;5025717;28;20053;-71
2021/01/21 14:26:25;;;;;;;21.15;2.33;;;;;;;;;;5028905;28;20031;-71
2021/01/21 14:28:50;;;;;;;10.43;2.25;;;;;;;;;;5024882;28;20117;-71
2021/01/21 14:31:16;;;;;;;13.25;2.30;;;;;;;;;;5030121;28;20116;-71
2021/01/21 14:33:41;;;;;;;12.95;3.75;;;;;;;;;;5031890;28;20099;-70
2021/01/21 14:36:06;;;;;;;18.20;3.30;;;;;;;;;;5025550;28;20053;-71